Time;durP1;ratioP1;P1;durP2;ratioP2;P2;SDS_P1;SDS_P2;PMS_P1;PMS_P2;Temp;Humidity;BMP_temperature;BMP_pressure;BME280_temperature;BME280_humidity;BME280_pressure;Samples;Min_cycle;Max_cycle;Signal;HPM_P1;HPM_P2
2022/03/07 00:00:41;;;;;;;34.23;11.77;;;;;;;-0.83;100.00;99246.03;5094177;28;20483;-57
2022/03/07 00:03:10;;;;;;;20.93;9.50;;;;;;;-0.85;100.00;99242.72;5093255;28;20833;-66
2022/03/07 00:05:37;;;;;;;30.07;11.43;;;;;;;-0.85;100.00;99239.38;5093633;28;20854;-66
2022/03/07 00:08:04;;;;;;;28.80;11.80;;;;;;;-0.88;100.00;99232.75;5093330;28;20443;-67
2022/03/07 00:10:31;;;;;;;26.43;10.47;;;;;;;-0.94;100.00;99228.69;5092773;28;20997;-66
2022/03/07 00:12:58;;;;;;;23.90;9.73;;;;;;;-0.91;100.00;99232.81;5093956;28;20451;-58
2022/03/07 00:15:25;;;;;;;33.53;10.23;;;;;;;-0.89;100.00;99227.78;5093616;28;20495;-66
2022/03/07 00:17:52;;;;;;;20.70;8.80;;;;;;;-0.88;100.00;99222.72;5093508;28;20448;-57
2022/03/07 00:20:21;;;;;;;24.83;11.33;;;;;;;-0.91;100.00;99217.75;5092876;28;20807;-66
2022/03/07 00:22:48;;;;;;;20.73;9.63;;;;;;;-0.87;100.00;99214.34;5093442;28;20452;-66
2022/03/07 00:25:17;;;;;;;22.37;10.53;;;;;;;-0.94;100.00;99217.84;5093458;28;20479;-58
2022/03/07 00:27:44;;;;;;;14.07;7.43;;;;;;;-0.96;100.00;99222.91;5093014;28;20451;-67
2022/03/07 00:30:12;;;;;;;17.07;8.10;;;;;;;-0.88;100.00;99212.66;5092076;28;20492;-58
2022/03/07 00:32:40;;;;;;;63.43;12.20;;;;;;;-0.89;100.00;99220.25;5092409;28;20448;-66
2022/03/07 00:35:07;;;;;;;23.20;9.63;;;;;;;-0.80;100.00;99210.81;5092549;28;20492;-64
2022/03/07 00:37:37;;;;;;;24.00;10.93;;;;;;;-0.90;100.00;99219.44;5092241;28;20452;-66
2022/03/07 00:40:06;;;;;;;26.00;10.77;;;;;;;-0.87;100.00;99216.00;5092430;28;20574;-66
2022/03/07 00:42:33;;;;;;;44.73;12.57;;;;;;;-0.88;100.00;99211.84;5093666;28;20463;-66
2022/03/07 00:45:00;;;;;;;47.37;11.63;;;;;;;-0.86;100.00;99205.94;5092398;28;21017;-58
2022/03/07 00:47:27;;;;;;;25.97;9.50;;;;;;;-0.84;100.00;99211.75;5092351;28;20444;-66
2022/03/07 00:49:53;;;;;;;26.80;11.90;;;;;;;-0.86;100.00;99205.94;5092735;28;20483;-59
2022/03/07 00:52:20;;;;;;;43.77;14.47;;;;;;;-0.84;100.00;99198.34;5092007;28;20546;-66
2022/03/07 00:54:49;;;;;;;22.07;10.37;;;;;;;-0.89;100.00;99195.97;5092213;28;20472;-67
2022/03/07 00:57:16;;;;;;;22.00;10.93;;;;;;;-0.93;100.00;99204.44;5091822;28;20460;-66
2022/03/07 00:59:43;;;;;;;22.70;11.60;;;;;;;-1.02;100.00;99202.97;5092013;28;20452;-59
2022/03/07 01:02:11;;;;;;;20.70;9.63;;;;;;;-0.97;100.00;99203.66;5091591;28;20448;-66
2022/03/07 01:04:38;;;;;;;34.30;12.33;;;;;;;-0.98;100.00;99201.22;5091775;28;20456;-66
2022/03/07 01:07:07;;;;;;;89.57;15.43;;;;;;;-0.93;100.00;99199.44;5092198;28;20496;-66
2022/03/07 01:09:35;;;;;;;70.43;14.53;;;;;;;-0.96;100.00;99199.47;5092994;28;20525;-59
2022/03/07 01:12:05;;;;;;;70.83;11.67;;;;;;;-0.91;100.00;99207.72;5092003;28;20459;-67
2022/03/07 01:14:32;;;;;;;111.93;12.77;;;;;;;-0.95;100.00;99201.13;5092234;28;20494;-60
2022/03/07 01:17:00;;;;;;;133.67;18.37;;;;;;;-0.85;100.00;99202.56;5091968;28;20491;-66
2022/03/07 01:19:27;;;;;;;96.67;14.83;;;;;;;-0.94;100.00;99207.78;5092071;28;20516;-67
2022/03/07 01:21:53;;;;;;;188.10;21.07;;;;;;;-1.03;100.00;99205.50;5092765;28;20452;-58
2022/03/07 01:24:20;;;;;;;50.37;14.30;;;;;;;-0.91;100.00;99192.66;5092244;28;20471;-66
2022/03/07 01:26:47;;;;;;;66.80;13.17;;;;;;;-0.98;100.00;99208.75;5092059;28;20517;-59
2022/03/07 01:29:16;;;;;;;48.43;10.47;;;;;;;-0.98;100.00;99206.22;5091535;28;20452;-66
2022/03/07 01:31:43;;;;;;;63.80;12.57;;;;;;;-1.01;100.00;99206.31;5092068;28;20468;-58
2022/03/07 01:34:09;;;;;;;64.00;13.10;;;;;;;-0.97;100.00;99200.34;5092028;28;20460;-67
2022/03/07 01:36:36;;;;;;;32.77;12.20;;;;;;;-0.95;100.00;99203.66;5091364;28;20663;-58
2022/03/07 01:39:03;;;;;;;37.77;13.17;;;;;;;-0.87;100.00;99199.28;5091997;28;20455;-58
2022/03/07 01:41:30;;;;;;;32.70;12.83;;;;;;;-0.95;100.00;99201.13;5092501;28;20467;-58
2022/03/07 01:43:58;;;;;;;28.30;13.20;;;;;;;-0.87;100.00;99204.28;5091690;28;20446;-66
2022/03/07 01:46:26;;;;;;;25.57;11.60;;;;;;;-0.87;100.00;99211.81;5091204;28;20511;-58
2022/03/07 01:48:53;;;;;;;34.60;13.20;;;;;;;-0.92;100.00;99211.09;5091595;28;20448;-67
2022/03/07 01:51:22;;;;;;;29.40;11.73;;;;;;;-0.88;100.00;99217.69;5091514;28;20844;-58
2022/03/07 01:53:49;;;;;;;24.30;11.43;;;;;;;-0.91;100.00;99212.75;5091936;28;20807;-58
2022/03/07 01:56:16;;;;;;;29.07;12.20;;;;;;;-0.84;100.00;99209.25;5091585;28;20496;-66
2022/03/07 01:58:43;;;;;;;22.50;11.13;;;;;;;-0.87;100.00;99213.47;5091320;28;20446;-58
2022/03/07 02:01:10;;;;;;;29.67;13.20;;;;;;;-0.89;100.00;99211.03;5091955;28;20487;-58
2022/03/07 02:03:39;;;;;;;26.40;11.33;;;;;;;-0.91;100.00;99212.75;5091412;28;20980;-66
2022/03/07 02:06:07;;;;;;;18.27;7.70;;;;;;;-0.92;100.00;99211.09;5091060;28;20472;-67
2022/03/07 02:08:34;;;;;;;32.47;13.53;;;;;;;-0.93;100.00;99211.97;5092587;28;20448;-58
2022/03/07 02:11:03;;;;;;;33.00;14.30;;;;;;;-0.91;100.00;99222.78;5091677;28;20482;-66
2022/03/07 02:13:30;;;;;;;31.80;12.90;;;;;;;-0.84;100.00;99219.28;5091214;28;21004;-58
2022/03/07 02:15:58;;;;;;;86.17;15.13;;;;;;;-0.87;100.00;99214.34;5091335;28;20502;-66
2022/03/07 02:18:25;;;;;;;139.90;18.90;;;;;;;-0.86;100.00;99220.16;5091358;28;20475;-66
2022/03/07 02:20:57;;;;;;;79.97;17.90;;;;;;;-0.93;100.00;99215.31;5090723;28;21036;-65
2022/03/07 02:23:26;;;;;;;65.07;15.60;;;;;;;-0.88;100.00;99215.19;5090924;28;20436;-66
2022/03/07 02:25:54;;;;;;;136.97;18.20;;;;;;;-0.88;100.00;99222.72;5091309;28;20476;-65
2022/03/07 02:28:21;;;;;;;76.10;15.73;;;;;;;-0.82;100.00;99224.25;5090823;28;20459;-66
2022/03/07 02:30:51;;;;;;;41.37;13.93;;;;;;;-0.86;100.00;99231.03;5091008;28;20491;-66
2022/03/07 02:33:18;;;;;;;92.57;16.13;;;;;;;-0.93;100.00;99234.56;5090864;28;20448;-59
2022/03/07 02:35:46;;;;;;;43.40;12.43;;;;;;;-0.83;100.00;99233.47;5091548;28;20494;-59
2022/03/07 02:38:14;;;;;;;88.13;16.30;;;;;;;-0.87;100.00;99229.41;5090813;28;20440;-59
2022/03/07 02:40:46;;;;;;;199.40;19.33;;;;;;;-0.81;100.00;99233.44;5091396;28;20848;-67
2022/03/07 02:43:13;;;;;;;162.70;18.40;;;;;;;-0.81;100.00;99231.75;5091308;28;20440;-59
2022/03/07 02:45:42;;;;;;;144.40;16.07;;;;;;;-0.90;100.00;99224.44;5090828;28;20563;-67
2022/03/07 02:48:09;;;;;;;115.67;17.43;;;;;;;-0.95;100.00;99231.25;5090884;28;20464;-59
2022/03/07 02:50:36;;;;;;;67.73;14.50;;;;;;;-1.00;100.00;99223.81;5091040;28;20479;-58
2022/03/07 02:53:04;;;;;;;207.60;19.83;;;;;;;-1.09;100.00;99223.22;5091035;28;20448;-59
2022/03/07 02:55:32;;;;;;;206.20;19.77;;;;;;;-1.13;100.00;99222.47;5091124;28;20476;-67
2022/03/07 02:58:01;;;;;;;112.27;15.80;;;;;;;-0.98;100.00;99221.28;5091051;28;20551;-59
2022/03/07 03:00:28;;;;;;;300.07;21.50;;;;;;;-0.91;100.00;99222.78;5090608;28;20479;-59
2022/03/07 03:02:54;;;;;;;158.03;17.93;;;;;;;-0.92;100.00;99233.69;5091826;28;20440;-66
2022/03/07 03:05:22;;;;;;;158.17;16.93;;;;;;;-0.92;100.00;99226.97;5090981;28;20484;-67
2022/03/07 03:07:51;;;;;;;182.97;17.03;;;;;;;-0.91;100.00;99222.78;5090940;28;20452;-67
2022/03/07 03:10:18;;;;;;;194.67;18.50;;;;;;;-0.92;100.00;99226.97;5091365;28;20896;-60
2022/03/07 03:12:45;;;;;;;183.50;17.07;;;;;;;-0.99;100.00;99225.50;5090566;28;20455;-59
2022/03/07 03:15:15;;;;;;;265.80;18.93;;;;;;;-0.99;100.00;99222.97;5090549;28;21027;-60
2022/03/07 03:17:45;;;;;;;136.40;14.07;;;;;;;-1.06;100.00;99223.97;5090524;28;20584;-67
2022/03/07 03:20:13;;;;;;;54.00;10.17;;;;;;;-1.06;100.00;99228.16;5090886;28;20479;-67
2022/03/07 03:22:40;;;;;;;118.83;13.67;;;;;;;-1.00;100.00;99231.34;5090964;28;20450;-66
2022/03/07 03:25:10;;;;;;;116.90;14.33;;;;;;;-1.04;100.00;99226.44;5090991;28;20472;-66
2022/03/07 03:27:38;;;;;;;166.50;14.50;;;;;;;-1.04;100.00;99224.75;5091144;28;20970;-59
2022/03/07 03:30:09;;;;;;;70.57;12.43;;;;;;;-1.14;100.00;99229.13;5091096;28;20506;-67
2022/03/07 03:32:37;;;;;;;84.03;12.20;;;;;;;-1.04;100.00;99226.44;5091816;28;20969;-67
2022/03/07 03:35:05;;;;;;;191.83;15.50;;;;;;;-1.10;100.00;99229.91;5094360;28;20903;-67
2022/03/07 03:37:32;;;;;;;48.17;11.80;;;;;;;-1.21;100.00;99225.13;5093640;28;20492;-59
2022/03/07 03:39:59;;;;;;;46.60;11.63;;;;;;;-1.12;100.00;99229.13;5094361;28;20841;-67
2022/03/07 03:42:26;;;;;;;46.57;13.33;;;;;;;-1.12;100.00;99228.31;5094606;28;20456;-59
2022/03/07 03:44:54;;;;;;;53.10;13.03;;;;;;;-1.11;100.00;99235.78;5094011;28;20476;-66
2022/03/07 03:47:21;;;;;;;35.93;11.33;;;;;;;-1.16;100.00;99223.34;5093691;28;20452;-59
2022/03/07 03:49:50;;;;;;;61.73;12.90;;;;;;;-1.16;100.00;99223.34;5093824;28;20479;-66
2022/03/07 03:52:18;;;;;;;67.73;14.27;;;;;;;-1.25;100.00;99226.06;5094606;28;20463;-67
2022/03/07 03:54:45;;;;;;;28.00;9.70;;;;;;;-1.32;100.00;99224.53;5095544;28;20463;-67
2022/03/07 03:57:11;;;;;;;25.33;11.53;;;;;;;-1.35;100.00;99233.81;5093915;28;21050;-59
2022/03/07 03:59:38;;;;;;;25.63;11.90;;;;;;;-1.44;100.00;99224.81;5093924;28;20476;-66
2022/03/07 04:02:05;;;;;;;28.73;10.77;;;;;;;-1.30;100.00;99225.34;5093282;28;20486;-59
2022/03/07 04:04:32;;;;;;;27.27;11.90;;;;;;;-1.35;100.00;99231.31;5093542;28;20465;-60
2022/03/07 04:07:01;;;;;;;22.90;11.03;;;;;;;-1.46;100.00;99229.84;5093724;28;20448;-67
2022/03/07 04:09:30;;;;;;;28.67;12.37;;;;;;;-1.36;100.00;99230.50;5093378;28;20460;-67
2022/03/07 04:11:58;;;;;;;26.40;11.67;;;;;;;-1.34;100.00;99232.94;5093275;28;20537;-58
2022/03/07 04:14:25;;;;;;;18.83;9.03;;;;;;;-1.40;100.00;99232.25;5093696;28;20473;-58
2022/03/07 04:16:53;;;;;;;21.10;9.57;;;;;;;-1.45;100.00;99220.66;5093400;28;20487;-67
2022/03/07 04:19:20;;;;;;;19.70;10.07;;;;;;;-1.53;100.00;99227.50;5093056;28;20558;-67
2022/03/07 04:21:47;;;;;;;17.83;7.80;;;;;;;-1.56;100.00;99222.56;5094392;28;20528;-59
2022/03/07 04:24:16;;;;;;;18.20;8.67;;;;;;;-1.55;100.00;99224.22;5093302;28;20475;-59
2022/03/07 04:26:46;;;;;;;22.33;10.80;;;;;;;-1.50;100.00;99217.41;5093166;28;20479;-66
2022/03/07 04:29:14;;;;;;;20.33;9.77;;;;;;;-1.45;100.00;99216.47;5093298;28;20460;-66
2022/03/07 04:31:43;;;;;;;32.97;11.63;;;;;;;-1.48;100.00;99211.53;5093111;28;20479;-61
2022/03/07 04:34:12;;;;;;;23.57;10.93;;;;;;;-1.60;100.00;99217.63;5093046;28;20842;-60
2022/03/07 04:36:40;;;;;;;26.00;10.97;;;;;;;-1.56;100.00;99217.56;5092562;28;20538;-66
2022/03/07 04:39:08;;;;;;;20.50;8.77;;;;;;;-1.60;100.00;99215.09;5092738;28;20463;-66
2022/03/07 04:41:39;;;;;;;25.77;11.57;;;;;;;-1.53;100.00;99217.47;5093307;28;20507;-66
2022/03/07 04:44:06;;;;;;;23.43;11.47;;;;;;;-1.46;100.00;99219.00;5093887;28;20464;-66
2022/03/07 04:46:33;;;;;;;25.97;11.63;;;;;;;-1.44;100.00;99214.78;5092815;28;20853;-58
2022/03/07 04:49:01;;;;;;;25.03;11.33;;;;;;;-1.41;100.00;99224.75;5092261;28;20448;-66
2022/03/07 04:51:27;;;;;;;22.63;9.63;;;;;;;-1.46;100.00;99213.97;5092472;28;20537;-58
2022/03/07 04:53:55;;;;;;;24.57;11.27;;;;;;;-1.61;100.00;99215.94;5093128;28;20444;-58
2022/03/07 04:56:22;;;;;;;24.67;11.90;;;;;;;-1.63;100.00;99212.66;5094575;28;20506;-58
2022/03/07 04:58:50;;;;;;;22.97;9.57;;;;;;;-1.49;100.00;99211.53;5093691;28;20483;-66
2022/03/07 05:01:17;;;;;;;25.57;10.57;;;;;;;-1.53;100.00;99207.47;5091998;28;20468;-58
2022/03/07 05:03:44;;;;;;;26.23;11.53;;;;;;;-1.43;100.00;99209.72;5092508;28;20452;-58
2022/03/07 05:06:11;;;;;;;19.07;7.93;;;;;;;-1.41;100.00;99202.16;5092150;28;21009;-57
2022/03/07 05:08:38;;;;;;;23.73;9.87;;;;;;;-1.54;100.00;99208.28;5093003;28;20455;-66
2022/03/07 05:11:06;;;;;;;22.33;10.23;;;;;;;-1.47;100.00;99207.31;5094355;28;20472;-64
2022/03/07 05:13:33;;;;;;;22.53;10.77;;;;;;;-1.40;100.00;99203.81;5092478;28;20452;-58
2022/03/07 05:16:03;;;;;;;21.53;8.27;;;;;;;-1.45;100.00;99210.63;5093477;28;20479;-66
2022/03/07 05:18:30;;;;;;;19.50;9.77;;;;;;;-1.53;100.00;99197.44;5091776;28;20452;-66
2022/03/07 05:20:57;;;;;;;20.90;9.70;;;;;;;-1.45;100.00;99208.13;5092319;28;20479;-58
2022/03/07 05:23:23;;;;;;;19.30;9.17;;;;;;;-1.44;100.00;99199.72;5091340;28;20455;-66
2022/03/07 05:25:50;;;;;;;18.13;8.57;;;;;;;-1.51;100.00;99205.72;5091766;28;21011;-58
2022/03/07 05:28:18;;;;;;;32.20;14.20;;;;;;;-1.44;100.00;99204.75;5092866;28;20965;-66
2022/03/07 05:30:45;;;;;;;20.47;9.17;;;;;;;-1.32;100.00;99201.97;5098656;28;20487;-66
2022/03/07 05:33:14;;;;;;;22.57;10.10;;;;;;;-1.32;100.00;99201.97;5094899;28;20471;-66
2022/03/07 05:35:41;;;;;;;20.80;9.27;;;;;;;-1.34;100.00;99206.19;5091742;28;20549;-66
2022/03/07 05:38:09;;;;;;;18.93;8.67;;;;;;;-1.22;100.00;99208.44;5091079;28;21067;-58
2022/03/07 05:40:36;;;;;;;21.40;9.57;;;;;;;-1.29;100.00;99204.41;5093978;28;20491;-66
2022/03/07 05:43:03;;;;;;;21.70;10.17;;;;;;;-1.36;100.00;99210.44;5091696;28;20454;-65
2022/03/07 05:45:30;;;;;;;20.30;9.27;;;;;;;-1.27;100.00;99205.19;5093566;28;20482;-58
2022/03/07 05:47:57;;;;;;;24.63;10.87;;;;;;;-1.12;100.00;99208.22;5091281;28;20459;-58
2022/03/07 05:50:25;;;;;;;24.13;11.37;;;;;;;-1.23;100.00;99201.75;5092909;28;20483;-65
2022/03/07 05:52:52;;;;;;;24.23;9.93;;;;;;;-1.27;100.00;99202.69;5091299;28;20448;-57
2022/03/07 05:55:19;;;;;;;21.67;9.17;;;;;;;-1.30;100.00;99200.25;5091127;28;20511;-58
2022/03/07 05:57:46;;;;;;;21.47;9.37;;;;;;;-1.24;100.00;99200.13;5091196;28;20490;-66
2022/03/07 06:00:14;;;;;;;19.67;9.03;;;;;;;-1.18;100.00;99197.47;5093755;28;20499;-66
2022/03/07 06:02:41;;;;;;;20.60;8.40;;;;;;;-1.20;100.00;99201.69;5093334;28;20448;-58
2022/03/07 06:05:08;;;;;;;18.83;8.67;;;;;;;-1.14;100.00;99196.53;5092484;28;20468;-66
2022/03/07 06:07:37;;;;;;;26.43;9.43;;;;;;;-0.99;100.00;99204.56;5093976;28;20454;-65
2022/03/07 06:10:04;;;;;;;25.50;9.93;;;;;;;-0.98;100.00;99206.22;5093081;28;20468;-57
2022/03/07 06:12:31;;;;;;;20.93;10.00;;;;;;;-0.93;100.00;99214.47;5092828;28;20455;-58
2022/03/07 06:15:03;;;;;;;21.33;9.97;;;;;;;-0.86;100.00;99205.94;5091401;28;20570;-58
2022/03/07 06:17:30;;;;;;;20.93;9.83;;;;;;;-0.79;100.00;99212.44;5093170;28;20490;-66
2022/03/07 06:19:57;;;;;;;21.73;10.00;;;;;;;-0.69;100.00;99213.88;5093138;28;20499;-66
2022/03/07 06:22:24;;;;;;;22.40;10.57;;;;;;;-0.57;100.00;99216.97;5090972;28;20456;-66
2022/03/07 06:24:53;;;;;;;23.90;10.43;;;;;;;-0.60;100.00;99219.53;5090836;28;20491;-66
2022/03/07 06:27:20;;;;;;;18.50;9.13;;;;;;;-0.58;100.00;99216.13;5090977;28;20830;-66
2022/03/07 06:29:48;;;;;;;25.03;10.33;;;;;;;-0.56;100.00;99216.09;5092448;28;20480;-67
2022/03/07 06:32:15;;;;;;;22.53;10.47;;;;;;;-0.57;100.00;99222.78;5091640;28;20448;-58
2022/03/07 06:34:42;;;;;;;23.17;10.10;;;;;;;-0.55;100.00;99215.25;5093750;28;20467;-58
2022/03/07 06:37:09;;;;;;;23.80;9.57;;;;;;;-0.54;100.00;99221.91;5090995;28;20997;-58
2022/03/07 06:39:36;;;;;;;23.77;9.80;;;;;;;-0.55;100.00;99221.09;5091108;28;20456;-58
2022/03/07 06:42:05;;;;;;;24.60;11.07;;;;;;;-0.42;100.00;99219.06;5091540;28;20455;-66
2022/03/07 06:44:32;;;;;;;31.23;12.57;;;;;;;-0.16;100.00;99217.59;5090916;28;20451;-66
2022/03/07 06:46:59;;;;;;;27.03;11.20;;;;;;;-0.15;100.00;99216.72;5090948;28;20447;-57
2022/03/07 06:49:26;;;;;;;29.77;12.53;;;;;;;-0.04;100.00;99224.78;5090918;28;20456;-58
2022/03/07 06:51:53;;;;;;;39.10;11.67;;;;;;;0.03;100.00;99220.41;5092129;28;20451;-66
2022/03/07 06:54:20;;;;;;;86.17;13.07;;;;;;;-0.15;100.00;99230.09;5091458;28;20489;-67
2022/03/07 06:56:47;;;;;;;36.57;12.10;;;;;;;0.02;100.00;99224.63;5090977;28;21135;-66
2022/03/07 06:59:15;;;;;;;23.20;10.73;;;;;;;0.03;100.00;99228.81;5091095;28;20452;-67
2022/03/07 07:01:42;;;;;;;28.83;12.07;;;;;;;-0.13;100.00;99225.03;5093180;28;20464;-66
2022/03/07 07:04:09;;;;;;;31.37;12.73;;;;;;;-0.06;100.00;99218.97;5094185;28;20221;-67
2022/03/07 07:06:36;;;;;;;25.47;11.77;;;;;;;0.07;100.00;99224.50;5095948;28;20456;-66
2022/03/07 07:09:04;;;;;;;23.67;11.33;;;;;;;0.08;100.00;99223.63;5097516;28;20459;-58
2022/03/07 07:11:31;;;;;;;28.00;11.97;;;;;;;0.13;100.00;99221.81;5095543;28;20475;-58
2022/03/07 07:13:58;;;;;;;23.67;10.93;;;;;;;0.20;100.00;99221.63;5095853;28;20466;-66
2022/03/07 07:16:26;;;;;;;26.90;11.23;;;;;;;0.25;100.00;99223.16;5095488;28;20308;-66
2022/03/07 07:18:53;;;;;;;25.73;11.63;;;;;;;0.33;100.00;99213.72;5094887;28;20498;-58
2022/03/07 07:21:20;;;;;;;26.67;12.07;;;;;;;0.51;100.00;99218.22;5095589;28;20226;-57
2022/03/07 07:23:47;;;;;;;26.87;11.53;;;;;;;0.48;100.00;99215.78;5095386;28;20209;-67
2022/03/07 07:26:15;;;;;;;26.40;11.70;;;;;;;0.34;100.00;99217.88;5096611;28;20510;-58
2022/03/07 07:28:42;;;;;;;29.20;12.20;;;;;;;0.45;100.00;99226.75;5096731;28;20205;-67
2022/03/07 07:31:09;;;;;;;25.33;11.53;;;;;;;0.25;100.00;99218.16;5097766;28;20421;-58
2022/03/07 07:33:37;;;;;;;24.13;11.70;;;;;;;0.18;100.00;99218.31;5096307;28;20452;-58
2022/03/07 07:36:05;;;;;;;24.83;11.23;;;;;;;0.21;100.00;99208.19;5096453;28;20526;-58
2022/03/07 07:38:32;;;;;;;23.90;10.93;;;;;;;0.45;100.00;99210.84;5102595;28;20505;-66
2022/03/07 07:40:59;;;;;;;22.13;11.00;;;;;;;0.49;100.00;99204.84;5098692;28;20649;-66
2022/03/07 07:43:26;;;;;;;24.97;11.13;;;;;;;0.64;100.00;99206.94;5097200;28;20284;-66
2022/03/07 07:45:52;;;;;;;25.07;12.53;;;;;;;0.72;100.00;99204.16;5096778;28;20311;-57
2022/03/07 07:48:19;;;;;;;29.23;12.87;;;;;;;0.83;100.00;99204.66;5097416;28;20206;-66
2022/03/07 07:50:48;;;;;;;23.57;11.77;;;;;;;1.00;100.00;99209.19;5098111;28;20225;-58
2022/03/07 07:53:15;;;;;;;25.57;11.87;;;;;;;1.02;100.00;99202.41;5097171;28;20205;-58
2022/03/07 07:55:41;;;;;;;23.40;11.20;;;;;;;0.81;100.00;99208.09;5098627;28;20624;-58
2022/03/07 07:58:09;;;;;;;24.37;11.90;;;;;;;0.78;100.00;99198.13;5097086;28;20239;-58
2022/03/07 08:00:36;;;;;;;25.90;12.17;;;;;;;0.95;100.00;99207.69;5097712;28;20234;-58
2022/03/07 08:03:03;;;;;;;23.57;11.17;;;;;;;1.15;100.00;99212.09;5097643;28;20223;-66
2022/03/07 08:05:30;;;;;;;26.57;13.77;;;;;;;1.09;100.00;99213.94;5097733;28;20225;-65
2022/03/07 08:07:58;;;;;;;23.13;11.73;;;;;;;0.89;100.00;99211.22;5096616;28;20206;-66
2022/03/07 08:10:25;;;;;;;24.10;11.43;;;;;;;1.19;100.00;99219.50;5097078;28;20719;-67
2022/03/07 08:12:52;;;;;;;19.60;11.00;;;;;;;1.19;100.00;99213.63;5096804;28;20206;-57
2022/03/07 08:15:20;;;;;;;25.30;12.13;;;;;;;1.03;100.00;99208.28;5096979;28;20217;-56
2022/03/07 08:17:49;;;;;;;30.40;13.77;;;;;;;0.90;100.00;99212.84;5097596;28;20225;-65
2022/03/07 08:20:17;;;;;;;20.30;10.43;;;;;;;1.06;100.00;99214.03;5098437;28;20229;-56
2022/03/07 08:22:44;;;;;;;21.57;10.47;;;;;;;1.15;100.00;99217.13;5096597;28;20208;-57
2022/03/07 08:25:13;;;;;;;23.97;11.17;;;;;;;1.26;100.00;99210.06;5096723;28;20611;-65
2022/03/07 08:27:41;;;;;;;21.87;11.13;;;;;;;1.46;100.00;99212.75;5095032;28;20209;-57
2022/03/07 08:30:11;;;;;;;19.27;10.23;;;;;;;1.62;100.00;99217.28;5099305;28;20232;-57
2022/03/07 08:32:40;;;;;;;24.83;13.63;;;;;;;1.64;99.81;99218.06;5097298;28;20592;-57
2022/03/07 08:35:09;;;;;;;17.77;9.37;;;;;;;1.41;99.09;99219.63;5097698;28;20321;-58
2022/03/07 08:37:36;;;;;;;21.03;10.10;;;;;;;1.26;99.76;99222.66;5099112;28;20233;-65
2022/03/07 08:40:03;;;;;;;18.07;9.73;;;;;;;1.30;100.00;99225.00;5097143;28;20222;-57
2022/03/07 08:42:31;;;;;;;18.73;9.60;;;;;;;1.38;100.00;99219.75;5097174;28;20616;-66
2022/03/07 08:44:59;;;;;;;18.13;10.00;;;;;;;1.44;100.00;99228.78;5096919;28;20229;-58
2022/03/07 08:47:26;;;;;;;20.30;12.03;;;;;;;1.54;99.58;99225.94;5097967;28;20623;-59
2022/03/07 08:49:53;;;;;;;16.93;9.57;;;;;;;1.61;99.31;99225.72;5096650;28;20745;-64
2022/03/07 08:52:20;;;;;;;18.57;9.73;;;;;;;1.72;98.79;99223.66;5096678;28;20209;-58
2022/03/07 08:54:47;;;;;;;16.73;8.93;;;;;;;1.70;98.88;99221.19;5098454;28;20245;-57
2022/03/07 08:57:15;;;;;;;14.77;8.77;;;;;;;1.77;97.82;99226.81;5097020;28;20206;-57
2022/03/07 08:59:44;;;;;;;14.83;8.13;;;;;;;1.78;98.51;99223.47;5096945;28;20302;-65
2022/03/07 09:02:12;;;;;;;18.80;10.50;;;;;;;1.77;97.57;99222.59;5097594;28;20202;-66
2022/03/07 09:04:40;;;;;;;19.10;10.60;;;;;;;1.69;97.57;99231.34;5095655;28;20495;-57
2022/03/07 09:07:08;;;;;;;19.07;9.97;;;;;;;1.71;98.40;99219.47;5099621;28;20210;-57
2022/03/07 09:09:35;;;;;;;18.87;9.63;;;;;;;1.68;98.29;99232.19;5096053;28;20217;-57
2022/03/07 09:12:04;;;;;;;19.43;10.70;;;;;;;1.66;98.12;99229.75;5096620;28;20184;-66
2022/03/07 09:14:32;;;;;;;22.70;11.00;;;;;;;1.63;97.77;99234.03;5095331;28;20217;-66
2022/03/07 09:17:01;;;;;;;25.73;12.33;;;;;;;1.61;98.09;99230.75;5094917;28;20289;-67
2022/03/07 09:19:28;;;;;;;22.13;11.47;;;;;;;1.57;98.54;99230.88;5096002;28;20240;-66
2022/03/07 09:21:55;;;;;;;21.50;10.57;;;;;;;1.58;98.22;99236.72;5095702;28;20245;-65
2022/03/07 09:24:24;;;;;;;23.43;11.87;;;;;;;1.50;98.58;99236.97;5096884;28;20671;-58
2022/03/07 09:26:51;;;;;;;22.60;11.63;;;;;;;1.43;98.41;99227.97;5096250;28;20230;-57
2022/03/07 09:29:18;;;;;;;21.37;11.90;;;;;;;1.61;99.65;99226.53;5094014;28;20671;-55
2022/03/07 09:31:46;;;;;;;23.10;11.27;;;;;;;1.70;98.80;99226.22;5095195;28;20304;-65
2022/03/07 09:34:15;;;;;;;22.73;11.23;;;;;;;1.71;98.81;99235.41;5096428;28;20194;-66
2022/03/07 09:36:43;;;;;;;21.40;11.40;;;;;;;1.78;97.55;99233.53;5094685;28;20238;-56
2022/03/07 09:39:10;;;;;;;20.97;10.33;;;;;;;1.67;96.79;99238.13;5093748;28;20329;-58
2022/03/07 09:41:38;;;;;;;21.53;10.87;;;;;;;1.61;97.57;99230.75;5094683;28;20225;-56
2022/03/07 09:44:05;;;;;;;23.57;11.83;;;;;;;1.69;98.58;99233.84;5094935;28;20216;-56
2022/03/07 09:46:32;;;;;;;25.17;12.40;;;;;;;1.82;98.22;99222.47;5092896;28;20226;-65
2022/03/07 09:48:58;;;;;;;22.70;11.47;;;;;;;1.92;97.84;99230.53;5093348;28;20202;-65
2022/03/07 09:51:27;;;;;;;24.10;11.53;;;;;;;1.98;97.65;99231.16;5094570;28;20225;-58
2022/03/07 09:53:54;;;;;;;20.80;10.50;;;;;;;2.13;97.08;99228.97;5095313;28;20601;-56
2022/03/07 09:56:21;;;;;;;24.73;12.13;;;;;;;2.19;95.63;99234.63;5093919;28;20257;-66
2022/03/07 09:58:48;;;;;;;22.77;11.47;;;;;;;2.03;95.94;99234.31;5094079;28;20260;-64
2022/03/07 10:01:19;;;;;;;20.23;10.80;;;;;;;2.04;96.32;99228.41;5095598;28;20225;-56
2022/03/07 10:03:47;;;;;;;23.53;13.30;;;;;;;2.08;96.27;99233.34;5093774;28;20198;-56
2022/03/07 10:06:15;;;;;;;24.60;11.43;;;;;;;2.08;95.79;99240.91;5093708;28;20221;-57
2022/03/07 10:08:54;;;;;;;22.47;11.43;;;;;;;2.04;95.86;99238.50;5093591;28;20206;-56
2022/03/07 10:11:21;;;;;;;25.17;13.27;;;;;;;1.99;96.48;99237.84;5094298;28;20237;-64
2022/03/07 10:13:53;;;;;;;23.37;12.70;;;;;;;1.93;96.38;99242.28;5093629;28;20202;-65
2022/03/07 10:16:21;;;;;;;29.40;13.23;;;;;;;1.96;96.86;99237.94;5092915;28;20221;-56
2022/03/07 10:18:51;;;;;;;24.07;14.63;;;;;;;1.98;96.72;99235.38;5095434;28;20233;-65
2022/03/07 10:21:23;;;;;;;36.87;21.90;;;;;;;1.97;96.18;99232.00;5094671;28;20286;-56
2022/03/07 10:23:56;;;;;;;29.97;17.07;;;;;;;1.96;96.36;99227.84;5092691;28;20197;-57
2022/03/07 10:26:24;;;;;;;21.37;11.47;;;;;;;1.99;95.95;99230.25;5093947;28;20226;-57
2022/03/07 10:28:55;;;;;;;26.63;13.00;;;;;;;2.13;96.47;99219.69;5094084;28;20296;-56
2022/03/07 10:31:23;;;;;;;24.73;13.90;;;;;;;2.27;95.98;99221.75;5093295;28;20684;-57
2022/03/07 10:34:02;;;;;;;24.93;13.70;;;;;;;2.39;95.36;99218.75;5094317;28;20202;-65
2022/03/07 10:36:35;;;;;;;21.13;11.63;;;;;;;2.40;93.85;99222.09;5094874;28;20225;-56
2022/03/07 10:39:06;;;;;;;33.00;19.23;;;;;;;2.45;93.83;99210.97;5094263;28;20238;-65
2022/03/07 10:41:37;;;;;;;19.10;10.77;;;;;;;2.38;94.03;99214.56;5095735;28;20261;-57
2022/03/07 10:44:06;;;;;;;21.43;11.80;;;;;;;2.39;94.18;99211.19;5099471;28;20267;-56
2022/03/07 10:46:33;;;;;;;48.00;27.27;;;;;;;2.45;94.65;99200.88;5098430;28;20651;-65
2022/03/07 10:49:01;;;;;;;23.93;13.00;;;;;;;2.48;94.28;99204.97;5101189;28;20213;-57
2022/03/07 10:51:29;;;;;;;34.40;17.23;;;;;;;2.45;94.90;99205.09;5098566;28;20236;-56
2022/03/07 10:54:07;;;;;;;22.97;11.53;;;;;;;2.49;94.15;99202.38;5098108;28;20651;-57
2022/03/07 10:56:36;;;;;;;19.60;10.70;;;;;;;2.57;93.06;99203.81;5099682;28;20599;-56
2022/03/07 10:59:11;;;;;;;19.33;10.63;;;;;;;2.65;92.84;99197.59;5097786;28;20233;-56
2022/03/07 11:01:38;;;;;;;21.73;11.17;;;;;;;2.80;93.21;99196.19;5098641;28;20232;-65
2022/03/07 11:04:05;;;;;;;16.97;9.97;;;;;;;2.87;92.16;99187.47;5100300;28;20209;-66
2022/03/07 11:06:32;;;;;;;20.10;11.00;;;;;;;2.92;91.72;99188.13;5097764;28;20218;-57
2022/03/07 11:08:59;;;;;;;20.20;10.47;;;;;;;2.98;91.34;99186.25;5099451;28;20205;-65
2022/03/07 11:11:27;;;;;;;29.40;16.63;;;;;;;3.09;91.01;99186.66;5097479;28;20228;-66
2022/03/07 11:13:56;;;;;;;18.53;10.53;;;;;;;3.08;90.42;99179.94;5098399;28;20209;-57
2022/03/07 11:16:30;;;;;;;22.60;12.17;;;;;;;2.97;90.49;99177.00;5100478;28;20218;-57